Chopin — ZDFE4 — position and weather

sailwx.info

Track history (hours):
 
Tides and Currents Weather Stations Pressure Air Temp Water Temp Dewpoint Dewpoint Depression Visibility Wind Speed Wind Dir Waves Ship Positions

Chopin

Last reported at 2014-Oct-02 01:21 UTC. Time now 2014-Oct-02 16:44 UTC.
Position N 59°58' E 027°02'.

Length 104 m; draft 4.4 m.

Type: Cargo ship. MMSI: 236099000.

Date/timePositionNaut miles runAvg speedWind from/ knotsBaromVisibWave heightAir tempDewpointWater temp
2014-Oct-02 01:21N 59°58' E 027°02'810.6
2014-Oct-02 00:33N 59°59' E 026°46'6310.5
2014-Oct-01 18:34N 59°45' E 024°44'1010.4
2014-Oct-01 17:33N 59°43' E 024°23'1110.4
2014-Oct-01 16:27N 59°39' E 024°02'1010.4
2014-Oct-01 15:32N 59°36' E 023°44'  
2014-Sep-25 00:09N 57°33' E 017°49'5 8.3
2014-Sep-24 23:31N 57°28' E 017°47'9 8.8
2014-Sep-24 22:33N 57°20' E 017°42'9 9.3
2014-Sep-24 21:33N 57°11' E 017°36'83 9.2
2014-Sep-24 12:30N 55°57' E 016°27'49 9.9
2014-Sep-24 07:33N 55°34' E 015°11'1010.1
2014-Sep-24 06:33N 55°29' E 014°56'1010.2
2014-Sep-24 05:34N 55°24' E 014°40'10 9.9
2014-Sep-24 04:33N 55°16' E 014°29'10 9.5
2014-Sep-24 03:33N 55°10' E 014°16'9 9.4
2014-Sep-24 02:33N 55°10' E 013°60'19 9.1
2014-Sep-24 00:29N 55°12' E 013°27'8 9.0
2014-Sep-23 23:34N 55°13' E 013°13'10 9.4
2014-Sep-23 22:33N 55°15' E 012°56'9 9.4
2014-Sep-23 21:34N 55°18' E 012°41'8 7.8
2014-Sep-23 20:34N 55°25' E 012°40'9 8.5
2014-Sep-23 19:34N 55°34' E 012°42'7 6.8
2014-Sep-23 18:33N 55°41' E 012°41'9 8.6
2014-Sep-23 17:34N 55°49' E 012°41'9 8.8
2014-Sep-23 16:34N 55°58' E 012°38'8 8.1
2014-Sep-23 15:34N 56°06' E 012°34'10 9.6
2014-Sep-23 14:34N 56°11' E 012°20'1010.1
2014-Sep-23 13:33N 56°17' E 012°05'9 9.2
2014-Sep-23 12:34N 56°26' E 012°00'10 9.7
2014-Sep-23 11:32N 56°36' E 011°56'9 9.5
2014-Sep-23 10:33N 56°45' E 011°52'9 9.3
2014-Sep-23 09:33N 56°53' E 011°47'10 9.6
2014-Sep-23 08:32N 57°02' E 011°41'9 9.5
2014-Sep-23 07:33N 57°11' E 011°34'10 9.5
2014-Sep-23 06:33N 57°20' E 011°29'10 9.7
2014-Sep-23 05:33N 57°29' E 011°21'1010.1
2014-Sep-23 04:33N 57°36' E 011°07'18 8.8
2014-Sep-23 02:34N 57°46' E 010°41'  
Track history (hours):
 
Tides and Currents Weather Stations Pressure Air Temp Water Temp Dewpoint Dewpoint Depression Visibility Wind Speed Wind Dir Waves Ship Positions

Chopin

Last reported at 2014-Oct-02 01:21 UTC. Time now 2014-Oct-02 16:44 UTC.
Position N 59°58' E 027°02'.

Length 104 m; draft 4.4 m.

Type: Cargo ship. MMSI: 236099000.

Date/timePositionNaut miles runAvg speedWind from/ knotsBaromVisibWave heightAir tempDewpointWater temp
2014-Oct-02 01:21N 59°58' E 027°02'810.6
2014-Oct-02 00:33N 59°59' E 026°46'6310.5
2014-Oct-01 18:34N 59°45' E 024°44'1010.4
2014-Oct-01 17:33N 59°43' E 024°23'1110.4
2014-Oct-01 16:27N 59°39' E 024°02'1010.4
2014-Oct-01 15:32N 59°36' E 023°44'  
2014-Sep-25 00:09N 57°33' E 017°49'5 8.3
2014-Sep-24 23:31N 57°28' E 017°47'9 8.8
2014-Sep-24 22:33N 57°20' E 017°42'9 9.3
2014-Sep-24 21:33N 57°11' E 017°36'83 9.2
2014-Sep-24 12:30N 55°57' E 016°27'49 9.9
2014-Sep-24 07:33N 55°34' E 015°11'1010.1
2014-Sep-24 06:33N 55°29' E 014°56'1010.2
2014-Sep-24 05:34N 55°24' E 014°40'10 9.9
2014-Sep-24 04:33N 55°16' E 014°29'10 9.5
2014-Sep-24 03:33N 55°10' E 014°16'9 9.4
2014-Sep-24 02:33N 55°10' E 013°60'19 9.1
2014-Sep-24 00:29N 55°12' E 013°27'8 9.0
2014-Sep-23 23:34N 55°13' E 013°13'10 9.4
2014-Sep-23 22:33N 55°15' E 012°56'9 9.4
2014-Sep-23 21:34N 55°18' E 012°41'8 7.8
2014-Sep-23 20:34N 55°25' E 012°40'9 8.5
2014-Sep-23 19:34N 55°34' E 012°42'7 6.8
2014-Sep-23 18:33N 55°41' E 012°41'9 8.6
2014-Sep-23 17:34N 55°49' E 012°41'9 8.8
2014-Sep-23 16:34N 55°58' E 012°38'8 8.1
2014-Sep-23 15:34N 56°06' E 012°34'10 9.6
2014-Sep-23 14:34N 56°11' E 012°20'1010.1
2014-Sep-23 13:33N 56°17' E 012°05'9 9.2
2014-Sep-23 12:34N 56°26' E 012°00'10 9.7
2014-Sep-23 11:32N 56°36' E 011°56'9 9.5
2014-Sep-23 10:33N 56°45' E 011°52'9 9.3
2014-Sep-23 09:33N 56°53' E 011°47'10 9.6
2014-Sep-23 08:32N 57°02' E 011°41'9 9.5
2014-Sep-23 07:33N 57°11' E 011°34'10 9.5
2014-Sep-23 06:33N 57°20' E 011°29'10 9.7
2014-Sep-23 05:33N 57°29' E 011°21'1010.1
2014-Sep-23 04:33N 57°36' E 011°07'18 8.8
2014-Sep-23 02:34N 57°46' E 010°41'  

Dump ship's entire track history